Data for 09/27/2016

Time Sea-Level Adjusted Pressure Absolute Pressure Temperature Relative Humidity Dew Point   
(mb) (inHg) (mb) (inHg) (C) (F) (%) (C) (F)
00:05 1025 30.27 854 25.22 13.3 55.9 40 -0.1 31.9
00:10 1025 30.27 854 25.22 13.7 56.6 39 0.2 32.3
00:15 1025 30.27 854 25.22 13.7 56.6 40 0.4 32.7
00:20 1024 30.24 854 25.22 13.2 55.7 42 0.6 33.1
00:25 1024 30.24 854 25.22 13.1 55.5 41 0.1 32.1
00:30 1024 30.24 854 25.22 13.4 56.1 40 0.1 32.1
00:35 1024 30.24 854 25.22 13.5 56.3 40 0.2 32.3
00:40 1024 30.24 853 25.19 13.4 56.2 40 0.2 32.4
00:45 1024 30.24 853 25.19 13.3 56 41 0.5 32.8
00:50 1024 30.24 853 25.19 13.1 55.5 44 1 33.9
00:55 1024 30.24 853 25.19 12.8 55.1 42 0.5 32.8
01:00 1024 30.24 853 25.19 12.9 55.3 43 0.6 33.2
01:05 1024 30.24 853 25.19 12.9 55.1 41 0.1 32.2
01:10 1024 30.24 853 25.19 12.9 55.2 43 0.6 33.1
01:15 1024 30.24 853 25.19 12.5 54.5 45 0.9 33.7
01:20 1024 30.24 853 25.19 12.1 53.7 43 0.1 32.2
01:25 1024 30.24 853 25.19 12.7 54.9 41 0 32.1
01:30 1024 30.24 853 25.19 12.4 54.2 45 0.7 33.3
01:35 1024 30.24 853 25.19 12.2 53.9 43 0.2 32.3
01:40 1024 30.24 853 25.19 12.4 54.2 46 1.2 34.1
01:45 1024 30.24 853 25.19 11.6 52.8 48 1 33.7
01:50 1024 30.24 853 25.19 11.4 52.6 48 0.9 33.5
01:55 1024 30.24 853 25.19 11.5 52.7 47 0.8 33.4
02:00 1024 30.24 853 25.19 11.4 52.5 49 1 33.9
02:05 1024 30.24 853 25.19 11 51.9 50 0.9 33.7
02:10 1024 30.24 853 25.19 11 51.9 49 0.8 33.4
02:15 1024 30.24 853 25.19 11.1 52 49 0.8 33.4
02:20 1024 30.24 853 25.19 11.2 52.2 48 0.8 33.4
02:25 1024 30.24 853 25.19 11.4 52.5 47 0.6 33.1
02:30 1024 30.24 853 25.19 11.7 53 46 0.5 32.9
02:35 1024 30.24 853 25.19 11.8 53.3 46 0.7 33.2
02:40 1024 30.24 853 25.19 11.9 53.5 45 0.5 32.9
02:45 1023 30.21 853 25.19 12.1 53.7 45 0.5 32.8
02:50 1023 30.21 853 25.19 12.3 54.1 44 0.4 32.7
02:55 1023 30.21 853 25.19 12.5 54.5 43 0.5 32.8
03:00 1023 30.21 853 25.19 12.5 54.5 43 0.5 32.8
03:05 1023 30.21 853 25.19 12.4 54.4 44 0.7 33.2
03:10 1023 30.21 853 25.19 12.1 53.7 47 1.1 34
03:15 1023 30.21 853 25.19 11.3 52.4 51 1.5 34.7
03:20 1023 30.21 853 25.19 10.8 51.4 51 1.1 34
03:25 1023 30.21 853 25.19 10.9 51.5 51 1.2 34.2
03:30 1023 30.21 853 25.19 11 51.9 51 1.2 34.2
03:35 1023 30.21 853 25.19 11 51.7 50 1 33.8
03:40 1023 30.21 853 25.19 11.1 52 49 0.9 33.6
03:45 1023 30.21 852 25.16 11.2 52.1 49 0.8 33.4
03:50 1023 30.21 852 25.16 11.5 52.6 47 0.6 33
03:55 1023 30.21 852 25.16 11.7 53.1 45 0.3 32.5
04:00 1023 30.21 852 25.16 11.4 52.4 50 1.4 34.5
04:05 1023 30.21 852 25.16 10.7 51.2 50 0.8 33.5
04:10 1023 30.21 853 25.19 10.6 51.2 50 0.7 33.3
04:15 1023 30.21 853 25.19 11.2 52.2 49 1 33.8
04:20 1023 30.21 853 25.19 11.7 53 47 0.7 33.3
04:25 1023 30.21 853 25.19 11.5 52.7 50 1.5 34.6
04:30 1023 30.21 853 25.19 10.5 51 53 1.5 34.7
04:35 1023 30.21 853 25.19 10.2 50.4 55 1.6 34.8
04:40 1023 30.21 853 25.19 10.2 50.4 53 1.3 34.3
04:45 1023 30.21 853 25.19 10.1 50.2 53 1 33.7
04:50 1023 30.21 852 25.16 10.4 50.7 55 1.7 35.1
04:55 1023 30.21 852 25.16 10.1 50.1 56 1.7 35
05:00 1023 30.21 853 25.19 9.8 49.6 56 1.5 34.8
05:05 1023 30.21 853 25.19 9.8 49.7 55 1.3 34.4
05:10 1023 30.21 853 25.19 9.9 49.7 56 1.6 34.9
05:15 1023 30.21 853 25.19 9.6 49.3 58 1.9 35.4
05:20 1023 30.21 853 25.19 9.2 48.6 60 1.8 35.2
05:25 1023 30.21 853 25.19 9.3 48.7 58 1.5 34.7
05:30 1023 30.21 853 25.19 9.8 49.6 56 1.5 34.7
05:35 1023 30.21 853 25.19 9.9 49.8 56 1.6 34.9
05:40 1023 30.21 853 25.19 9.7 49.4 57 1.7 35
05:45 1023 30.21 853 25.19 9.9 49.8 55 1.2 34.2
05:50 1023 30.21 853 25.19 9.9 49.8 55 1.4 34.4
05:55 1023 30.21 853 25.19 9.8 49.6 57 1.6 34.9
06:00 1023 30.21 853 25.19 9.4 49 58 1.5 34.7
06:05 1023 30.21 853 25.19 9.2 48.6 58 1.4 34.4
06:10 1023 30.21 853 25.19 9.4 48.9 55 0.9 33.6
06:15 1023 30.21 853 25.19 9.8 49.6 55 1.3 34.3
06:20 1023 30.21 853 25.19 9.6 49.2 57 1.5 34.7
06:25 1023 30.21 852 25.16 9.5 49 57 1.5 34.7
06:30 1023 30.21 852 25.16 9.5 49.1 57 1.3 34.3
06:35 1023 30.21 852 25.16 9.8 49.7 56 1.5 34.7
06:40 1023 30.21 852 25.16 9.6 49.3 58 1.8 35.2
06:45 1023 30.21 852 25.16 9.3 48.7 59 1.7 35
06:50 1023 30.21 852 25.16 9.2 48.5 59 1.6 34.9
06:55 1023 30.21 852 25.16 9.1 48.3 59 1.6 34.9
07:00 1023 30.21 852 25.16 9.2 48.5 59 1.6 34.8
07:05 1023 30.21 852 25.16 9.2 48.6 58 1.4 34.5
07:10 1023 30.21 852 25.16 9.5 49.2 57 1.5 34.7
07:15 1023 30.21 852 25.16 9.7 49.5 56 1.5 34.6
07:20 1023 30.21 852 25.16 9.9 49.8 55 1.4 34.5
07:25 1023 30.21 852 25.16 10 50.1 55 1.6 34.8
07:30 1023 30.21 852 25.16 9.9 49.9 56 1.7 35.1
07:35 1023 30.21 852 25.16 9.6 49.4 57 1.6 34.8
07:40 1023 30.21 852 25.16 9.7 49.5 56 1.5 34.6
07:45 1023 30.21 852 25.16 10 49.9 55 1.4 34.6
07:50 1023 30.21 852 25.16 10.5 50.9 52 1.2 34.1
07:55 1023 30.21 852 25.16 11 51.8 51 1.4 34.5
08:00 1023 30.21 852 25.16 11.2 52.2 51 1.4 34.5
08:05 1023 30.21 852 25.16 11.3 52.4 50 1.3 34.3
08:10 1023 30.21 852 25.16 11.7 53.1 48 1.2 34.2
08:15 1023 30.21 852 25.16 12.1 53.8 48 1.4 34.5
08:20 1023 30.21 852 25.16 12.1 53.8 49 1.8 35.2
08:25 1023 30.21 852 25.16 12.1 53.8 49 1.8 35.3
08:30 1023 30.21 852 25.16 12.5 54.6 48 1.8 35.2
08:35 1023 30.21 852 25.16 12.7 54.8 48 2 35.6
08:40 1023 30.21 852 25.16 12.8 55 47 1.9 35.4
08:45 1023 30.21 852 25.16 13.1 55.6 46 2 35.6
08:50 1023 30.21 852 25.16 13.6 56.4 45 2 35.6
08:55 1023 30.21 853 25.19 14.1 57.5 45 2.4 36.4
09:00 1023 30.21 853 25.19 14.1 57.4 45 2.3 36.2
09:05 1023 30.21 853 25.19 14.4 57.9 44 2.5 36.5
09:10 1023 30.21 853 25.19 14.7 58.4 45 2.9 37.2
09:15 1023 30.21 853 25.19 14.6 58.3 46 3.1 37.6
09:20 1023 30.21 853 25.19 15.1 59.2 42 2.3 36.1
09:25 1023 30.21 853 25.19 15.4 59.7 42 2.8 37
09:30 1023 30.21 853 25.19 16 60.8 41 2.8 37.1
09:35 1023 30.21 853 25.19 15.8 60.4 42 2.8 37.1
09:40 1023 30.21 853 25.19 15.9 60.6 42 2.9 37.3
09:45 1023 30.21 853 25.19 16.9 62.4 39 2.9 37.2
09:50 1023 30.21 853 25.19 17.1 62.8 39 3.2 37.7
09:55 1023 30.21 853 25.19 16.9 62.4 40 3.2 37.7
10:00 1023 30.21 853 25.19 17.5 63.4 37 2.7 36.9
10:05 1023 30.21 853 25.19 18.3 64.9 36 3 37.5
10:10 1023 30.21 853 25.19 18.8 65.8 34 2.6 36.7
10:15 1024 30.24 853 25.19 18.9 66 36 3.6 38.5
10:20 1024 30.24 853 25.19 19.1 66.4 34 3.2 37.8
10:25 1024 30.24 853 25.19 19 66.1 36 3.6 38.4
10:30 1023 30.21 853 25.19 18.1 64.5 37 3.4 38.1
10:35 1023 30.21 853 25.19 18 64.4 35 2.6 36.7
10:40 1023 30.21 853 25.19 18.9 65.9 33 2.5 36.5
10:45 1023 30.21 853 25.19 19.3 66.7 33 2.6 36.8
10:50 1023 30.21 853 25.19 19.1 66.3 36 3.9 39.1
10:55 1023 30.21 853 25.19 19.6 67.2 33 2.9 37.3
11:00 1023 30.21 853 25.19 19.8 67.7 34 3.5 38.3
11:05 1023 30.21 853 25.19 20.1 68.1 34 3.9 39
11:10 1023 30.21 853 25.19 20.4 68.7 34 4.1 39.4
11:15 1023 30.21 853 25.19 20.6 69.1 33 3.8 38.8
11:20 1023 30.21 853 25.19 20.4 68.6 32 3.1 37.7
11:25 1023 30.21 853 25.19 21.2 70.1 29 2.6 36.8
11:30 1023 30.21 853 25.19 21.2 70.2 32 4.1 39.5
11:35 1023 30.21 853 25.19 21.1 70 32 4.1 39.5
11:40 1023 30.21 853 25.19 21.4 70.6 32 4.3 39.8
11:45 1023 30.21 852 25.16 21.7 71 32 4.6 40.3
11:50 1023 30.21 852 25.16 21.8 71.2 29 3.4 38.1
11:55 1023 30.21 852 25.16 21.9 71.4 31 4.3 39.8
12:00 1023 30.21 852 25.16 22 71.5 30 3.6 38.5
12:05 1023 30.21 852 25.16 22.4 72.3 30 4 39.2
12:10 1023 30.21 852 25.16 23.1 73.5 29 4.4 39.9
12:15 1023 30.21 852 25.16 22.9 73.3 28 3.9 39
12:20 1023 30.21 852 25.16 22.8 73 29 4 39.2
12:25 1023 30.21 852 25.16 23.1 73.5 29 4.2 39.5
12:30 1023 30.21 852 25.16 23.2 73.7 28 3.9 39
12:35 1023 30.21 852 25.16 23.2 73.7 26 2.7 36.8
12:40 1023 30.21 852 25.16 23.3 74 26 2.9 37.2
12:45 1023 30.21 852 25.16 23.1 73.7 28 3.7 38.7
12:50 1023 30.21 852 25.16 22.7 72.8 28 3.6 38.4
12:55 1023 30.21 852 25.16 22.4 72.3 28 3.2 37.8
13:00 1023 30.21 852 25.16 22.5 72.5 27 2.6 36.7
13:05 1023 30.21 852 25.16 23.8 74.9 26 3.3 37.9
13:10 1023 30.21 852 25.16 24.1 75.3 25 2.9 37.2
13:15 1023 30.21 852 25.16 23 73.5 27 3.1 37.5
13:20 1023 30.21 852 25.16 23.8 74.8 24 2.4 36.3
13:25 1023 30.21 852 25.16 24.6 76.3 24 3 37.4
13:30 1022 30.18 852 25.16 24.5 76.1 22 1.8 35.2
13:35 1022 30.18 852 25.16 24.9 76.8 23 2.4 36.3
13:40 1022 30.18 852 25.16 25.2 77.4 23 2.7 36.8
13:45 1022 30.18 852 25.16 25.2 77.3 22 1.9 35.5
13:50 1022 30.18 852 25.16 25.2 77.4 23 2.7 36.9
13:55 1022 30.18 852 25.16 25.9 78.7 22 2.5 36.6
14:00 1022 30.18 852 25.16 26.3 79.3 20 2 35.6
14:05 1022 30.18 851 25.13 26 78.8 22 2.8 37.1
14:10 1022 30.18 851 25.13 26.1 79 21 2.4 36.4
14:15 1022 30.18 851 25.13 26 78.7 20 1.9 35.3
14:20 1022 30.18 851 25.13 25.9 78.6 21 2.1 35.7
14:25 1022 30.18 851 25.13 26.2 79.2 20 1.5 34.7
14:30 1022 30.18 851 25.13 25.7 78.2 21 2 35.6
14:35 1022 30.18 851 25.13 25 77 21 1.5 34.7
14:40 1022 30.18 851 25.13 24.3 75.7 22 1.7 35
14:45 1022 30.18 851 25.13 24.9 76.9 19 0.1 32.2
14:50 1022 30.18 851 25.13 25.7 78.3 18 -0.5 31.2
14:55 1022 30.18 851 25.13 26.3 79.4 15 -1.8 28.7
15:00 1022 30.18 851 25.13 25.6 78 16 -1.6 29.1
15:05 1022 30.18 851 25.13 25.9 78.6 15 -2.2 28
15:10 1022 30.18 851 25.13 26.4 79.5 15 -1.9 28.6
15:15 1022 30.18 851 25.13 25.1 77.1 17 -1.4 29.5
15:20 1022 30.18 851 25.13 24.6 76.3 19 -0.6 30.9
15:25 1022 30.18 851 25.13 25.6 78.1 17 -1.1 30
15:30 1022 30.18 851 25.13 26.4 79.6 15 -1.8 28.8
15:35 1022 30.18 851 25.13 26.3 79.3 15 -1.9 28.6
15:40 1022 30.18 851 25.13 26.3 79.3 15 -2.2 28
15:45 1022 30.18 851 25.13 26.4 79.5 15 -2.2 28.1
15:50 1022 30.18 851 25.13 26.2 79.2 15 -1.9 28.5
15:55 1022 30.18 851 25.13 26 78.8 15 -2.1 28.3
16:00 1022 30.18 851 25.13 26 78.9 15 -2 28.5
16:05 1022 30.18 851 25.13 25.7 78.2 16 -1.6 29.1
16:10 1022 30.18 851 25.13 26 78.7 16 -1.9 28.6
16:15 1022 30.18 851 25.13 26.4 79.4 15 -1.8 28.7
16:20 1022 30.18 851 25.13 26.3 79.4 15 -1.7 28.9
16:25 1022 30.18 851 25.13 26.6 79.8 17 -0.5 31.1
16:30 1022 30.18 851 25.13 26.3 79.4 16 -0.9 30.3
16:35 1022 30.18 851 25.13 26.4 79.5 16 -1.5 29.3
16:40 1021 30.15 851 25.13 26.2 79.2 17 -0.6 31
16:45 1021 30.15 851 25.13 26.2 79.2 15 -1.8 28.8
16:50 1021 30.15 851 25.13 26.5 79.6 17 -0.5 31.2
16:55 1021 30.15 851 25.13 26.5 79.7 15 -1.6 29.2
17:00 1021 30.15 851 25.13 26.2 79.2 16 -1.4 29.5
17:05 1021 30.15 851 25.13 26.4 79.5 15 -1.9 28.6
17:10 1021 30.15 851 25.13 26.1 78.9 17 -0.8 30.6
17:15 1021 30.15 851 25.13 25.8 78.5 18 -0.4 31.3
17:20 1021 30.15 851 25.13 25.9 78.6 17 -1.1 30
17:25 1021 30.15 851 25.13 25.8 78.4 17 -0.8 30.5
17:30 1021 30.15 851 25.13 25.8 78.4 18 0.1 32.2
17:35 1021 30.15 851 25.13 26.1 78.9 17 -0.5 31.1
17:40 1021 30.15 851 25.13 26 78.8 17 -0.3 31.5
17:45 1021 30.15 851 25.13 26.1 78.9 17 -0.3 31.5
17:50 1021 30.15 851 25.13 26 78.8 17 -0.5 31.2
17:55 1021 30.15 851 25.13 25.9 78.7 17 -0.3 31.4
18:00 1021 30.15 851 25.13 26 78.8 17 -0.6 30.9
18:05 1021 30.15 851 25.13 25.9 78.6 18 -0.1 31.8
18:10 1021 30.15 851 25.13 25.8 78.4 18 -0.4 31.3
18:15 1021 30.15 851 25.13 25.4 77.8 18 0 32
18:20 1021 30.15 851 25.13 25.4 77.7 18 -0.2 31.6
18:25 1021 30.15 851 25.13 25.2 77.3 19 0.2 32.3
18:30 1021 30.15 851 25.13 25.1 77.1 19 -0.3 31.5
18:35 1021 30.15 851 25.13 24.3 75.8 20 0 32
18:40 1021 30.15 851 25.13 23.8 74.8 20 -0.1 31.7
18:45 1021 30.15 851 25.13 23.5 74.2 21 -0.2 31.7
18:50 1021 30.15 851 25.13 23.3 73.9 26 2.8 37
18:55 1021 30.15 851 25.13 22.8 73 31 4.9 40.8
19:00 1021 30.15 851 25.13 22 71.5 32 4.7 40.5
19:05 1022 30.18 851 25.13 21.2 70.1 33 4.5 40.1
19:10 1022 30.18 851 25.13 20.9 69.6 37 5.9 42.6
19:15 1022 30.18 851 25.13 20.1 68.1 34 4 39.1
19:20 1022 30.18 851 25.13 19.5 67.1 36 4.2 39.5
19:25 1022 30.18 851 25.13 19.1 66.4 35 3.5 38.3
19:30 1022 30.18 851 25.13 18.8 65.8 37 4 39.3
19:35 1022 30.18 851 25.13 18.4 65.2 36 3.3 37.9
19:40 1022 30.18 851 25.13 18 64.3 40 4.5 40
19:45 1022 30.18 851 25.13 17.3 63.1 42 4.5 40.1
19:50 1022 30.18 851 25.13 17 62.6 43 4.3 39.8
19:55 1022 30.18 851 25.13 16.8 62.2 42 3.8 38.9
20:00 1022 30.18 851 25.13 16.9 62.4 38 2.5 36.6
20:05 1022 30.18 851 25.13 17 62.7 38 2.7 36.9
20:10 1022 30.18 851 25.13 16.9 62.4 39 3.1 37.6
20:15 1022 30.18 851 25.13 16.6 61.9 41 3.3 38
20:20 1022 30.18 851 25.13 16.6 62 38 2.5 36.5
20:25 1022 30.18 851 25.13 16.7 62.1 39 2.7 36.9
20:30 1022 30.18 851 25.13 16.6 61.8 39 2.6 36.7
20:35 1022 30.18 851 25.13 16.5 61.7 38 2.4 36.3
20:40 1022 30.18 851 25.13 16.5 61.6 39 2.4 36.4
20:45 1022 30.18 851 25.13 16.5 61.6 37 2 35.7
20:50 1022 30.18 851 25.13 16.5 61.8 37 1.9 35.3
20:55 1022 30.18 851 25.13 16.8 62.2 34 1.1 33.9
21:00 1022 30.18 851 25.13 16.9 62.5 35 1.5 34.7
21:05 1022 30.18 851 25.13 16.7 62 37 1.9 35.3
21:10 1022 30.18 851 25.13 16.3 61.3 35 1.1 33.9
21:15 1022 30.18 852 25.16 16.7 62.1 35 1.4 34.4
21:20 1022 30.18 851 25.13 16.6 62 37 2.2 35.9
21:25 1022 30.18 851 25.13 16.4 61.5 37 1.8 35.3
21:30 1022 30.18 852 25.16 16 60.7 38 1.9 35.4
21:35 1022 30.18 852 25.16 15.7 60.2 39 1.9 35.4
21:40 1022 30.18 852 25.16 15.4 59.8 40 2.1 35.7
21:45 1022 30.18 852 25.16 15 59.1 41 2.1 35.7
21:50 1022 30.18 852 25.16 15.1 59.1 41 2 35.7
21:55 1022 30.18 852 25.16 14.9 58.7 42 2.3 36.1
22:00 1022 30.18 852 25.16 14.5 58.1 43 2.2 35.9
22:05 1023 30.21 852 25.16 14.6 58.3 42 2.1 35.7
22:10 1023 30.21 852 25.16 14.8 58.6 43 2.2 36
22:15 1023 30.21 852 25.16 14.8 58.6 42 2.1 35.8
22:20 1023 30.21 852 25.16 14.8 58.6 41 1.8 35.2
22:25 1023 30.21 852 25.16 14.8 58.6 41 1.8 35.2
22:30 1023 30.21 852 25.16 14.8 58.6 40 1.4 34.5
22:35 1023 30.21 852 25.16 14.9 58.9 41 1.8 35.3
22:40 1023 30.21 852 25.16 15.2 59.3 39 1.3 34.3
22:45 1023 30.21 852 25.16 15.3 59.5 38 1.1 33.9
22:50 1023 30.21 852 25.16 15.3 59.5 40 1.8 35.2
22:55 1023 30.21 852 25.16 15.1 59.1 40 1.6 34.8
23:00 1023 30.21 852 25.16 14.9 58.8 40 1.6 34.9
23:05 1023 30.21 852 25.16 14.8 58.6 40 1.5 34.6
23:10 1023 30.21 852 25.16 14.7 58.4 40 1.3 34.4
23:15 1023 30.21 852 25.16 14.6 58.4 40 1.4 34.4
23:20 1023 30.21 852 25.16 14.7 58.5 40 1.3 34.3
23:25 1023 30.21 852 25.16 14.8 58.6 39 1.2 34.2
23:30 1023 30.21 852 25.16 14.8 58.6 40 1.4 34.5
23:35 1023 30.21 852 25.16 14.6 58.3 41 1.6 34.9
23:40 1023 30.21 852 25.16 14.4 57.9 42 1.7 35
23:45 1023 30.21 852 25.16 14.3 57.8 43 2 35.6
23:50 1023 30.21 852 25.16 14.4 57.9 41 1.4 34.5
23:55 1023 30.21 852 25.16 14.6 58.2 41 1.7 35.1
24:00 1023 30.21 852 25.16 14.6 58.2 41 1.5 34.8